sensor_id;sensor_type;location;lat;lon;timestamp;temperature;humidity
20594;DHT22;10455;48.732;10.266;2023-12-07T00:04:35;2.60;99.90
20594;DHT22;10455;48.732;10.266;2023-12-07T00:09:38;2.60;99.90
20594;DHT22;10455;48.732;10.266;2023-12-07T00:14:40;2.60;99.90
20594;DHT22;10455;48.732;10.266;2023-12-07T00:19:42;2.60;99.90
20594;DHT22;10455;48.732;10.266;2023-12-07T00:24:45;2.60;99.90
20594;DHT22;10455;48.732;10.266;2023-12-07T00:29:47;2.60;99.90
20594;DHT22;10455;48.732;10.266;2023-12-07T00:34:49;2.60;99.90
20594;DHT22;10455;48.732;10.266;2023-12-07T00:39:52;2.60;99.90
20594;DHT22;10455;48.732;10.266;2023-12-07T00:44:54;2.50;99.90
20594;DHT22;10455;48.732;10.266;2023-12-07T00:49:56;2.50;99.90
20594;DHT22;10455;48.732;10.266;2023-12-07T00:54:59;2.50;99.90
20594;DHT22;10455;48.732;10.266;2023-12-07T01:00:01;2.50;99.90
20594;DHT22;10455;48.732;10.266;2023-12-07T01:05:04;2.60;99.90
20594;DHT22;10455;48.732;10.266;2023-12-07T01:10:09;2.50;99.90
20594;DHT22;10455;48.732;10.266;2023-12-07T01:15:10;2.60;99.90
20594;DHT22;10455;48.732;10.266;2023-12-07T01:20:13;2.50;99.90
20594;DHT22;10455;48.732;10.266;2023-12-07T01:25:16;2.50;99.90
20594;DHT22;10455;48.732;10.266;2023-12-07T01:30:22;2.50;99.90
20594;DHT22;10455;48.732;10.266;2023-12-07T01:35:23;2.50;99.90
20594;DHT22;10455;48.732;10.266;2023-12-07T01:40:27;2.50;99.90
20594;DHT22;10455;48.732;10.266;2023-12-07T01:45:28;2.50;99.90
20594;DHT22;10455;48.732;10.266;2023-12-07T01:50:30;2.50;99.90
20594;DHT22;10455;48.732;10.266;2023-12-07T01:55:35;2.50;99.90
20594;DHT22;10455;48.732;10.266;2023-12-07T02:00:38;2.50;99.90
20594;DHT22;10455;48.732;10.266;2023-12-07T02:05:42;2.50;99.90
20594;DHT22;10455;48.732;10.266;2023-12-07T02:10:46;2.60;99.90
20594;DHT22;10455;48.732;10.266;2023-12-07T02:15:48;2.60;99.90
20594;DHT22;10455;48.732;10.266;2023-12-07T02:20:55;2.60;99.90
20594;DHT22;10455;48.732;10.266;2023-12-07T02:31:59;2.60;99.90
20594;DHT22;10455;48.732;10.266;2023-12-07T02:37:02;2.60;99.90
20594;DHT22;10455;48.732;10.266;2023-12-07T02:42:05;2.60;99.90
20594;DHT22;10455;48.732;10.266;2023-12-07T02:47:10;2.60;99.90
20594;DHT22;10455;48.732;10.266;2023-12-07T02:52:11;2.60;99.90
20594;DHT22;10455;48.732;10.266;2023-12-07T02:57:13;2.60;99.90
20594;DHT22;10455;48.732;10.266;2023-12-07T03:02:18;2.60;99.90
20594;DHT22;10455;48.732;10.266;2023-12-07T03:07:21;2.60;99.90
20594;DHT22;10455;48.732;10.266;2023-12-07T03:12:23;2.60;99.90
20594;DHT22;10455;48.732;10.266;2023-12-07T03:17:26;2.60;99.90
20594;DHT22;10455;48.732;10.266;2023-12-07T03:22:28;2.60;99.90
20594;DHT22;10455;48.732;10.266;2023-12-07T03:27:29;2.60;99.90
20594;DHT22;10455;48.732;10.266;2023-12-07T03:32:33;2.60;99.90
20594;DHT22;10455;48.732;10.266;2023-12-07T03:37:35;2.60;99.90
20594;DHT22;10455;48.732;10.266;2023-12-07T03:42:37;2.70;99.90
20594;DHT22;10455;48.732;10.266;2023-12-07T03:47:40;2.70;99.90
20594;DHT22;10455;48.732;10.266;2023-12-07T03:52:42;2.60;99.90
20594;DHT22;10455;48.732;10.266;2023-12-07T03:57:44;2.60;99.90
20594;DHT22;10455;48.732;10.266;2023-12-07T04:02:47;2.50;99.90
20594;DHT22;10455;48.732;10.266;2023-12-07T04:07:49;2.60;99.90
20594;DHT22;10455;48.732;10.266;2023-12-07T04:12:51;2.60;99.90
20594;DHT22;10455;48.732;10.266;2023-12-07T04:17:54;2.60;99.90
20594;DHT22;10455;48.732;10.266;2023-12-07T04:22:56;2.60;99.90
20594;DHT22;10455;48.732;10.266;2023-12-07T04:27:59;2.70;99.90
20594;DHT22;10455;48.732;10.266;2023-12-07T04:33:02;2.60;99.90
20594;DHT22;10455;48.732;10.266;2023-12-07T04:38:04;2.70;99.90
20594;DHT22;10455;48.732;10.266;2023-12-07T04:43:06;2.70;99.90
20594;DHT22;10455;48.732;10.266;2023-12-07T04:48:09;2.70;99.90
20594;DHT22;10455;48.732;10.266;2023-12-07T04:53:11;2.70;99.90
20594;DHT22;10455;48.732;10.266;2023-12-07T04:58:13;2.70;99.90
20594;DHT22;10455;48.732;10.266;2023-12-07T05:03:16;2.70;99.90
20594;DHT22;10455;48.732;10.266;2023-12-07T05:08:18;2.70;99.90
20594;DHT22;10455;48.732;10.266;2023-12-07T05:13:20;2.70;99.90
20594;DHT22;10455;48.732;10.266;2023-12-07T05:18:23;2.70;99.90
20594;DHT22;10455;48.732;10.266;2023-12-07T05:23:25;2.70;99.90
20594;DHT22;10455;48.732;10.266;2023-12-07T05:28:26;2.70;99.90
20594;DHT22;10455;48.732;10.266;2023-12-07T05:33:30;2.70;99.90
20594;DHT22;10455;48.732;10.266;2023-12-07T05:38:31;2.70;99.90
20594;DHT22;10455;48.732;10.266;2023-12-07T05:43:33;2.70;99.90
20594;DHT22;10455;48.732;10.266;2023-12-07T05:48:37;2.70;99.90
20594;DHT22;10455;48.732;10.266;2023-12-07T05:53:38;2.70;99.90
20594;DHT22;10455;48.732;10.266;2023-12-07T05:58:40;2.80;99.90
20594;DHT22;10455;48.732;10.266;2023-12-07T06:03:43;2.70;99.90
20594;DHT22;10455;48.732;10.266;2023-12-07T06:08:45;2.70;99.90
20594;DHT22;10455;48.732;10.266;2023-12-07T06:13:47;2.70;99.90
20594;DHT22;10455;48.732;10.266;2023-12-07T06:18:50;2.70;99.90
20594;DHT22;10455;48.732;10.266;2023-12-07T06:23:52;2.70;99.90
20594;DHT22;10455;48.732;10.266;2023-12-07T06:28:54;2.70;99.90
20594;DHT22;10455;48.732;10.266;2023-12-07T06:33:57;2.70;99.90
20594;DHT22;10455;48.732;10.266;2023-12-07T06:39:00;2.70;99.90
20594;DHT22;10455;48.732;10.266;2023-12-07T06:44:03;2.60;99.90
20594;DHT22;10455;48.732;10.266;2023-12-07T06:49:06;2.60;99.90
20594;DHT22;10455;48.732;10.266;2023-12-07T06:54:08;2.50;99.90
20594;DHT22;10455;48.732;10.266;2023-12-07T06:59:10;2.50;99.90
20594;DHT22;10455;48.732;10.266;2023-12-07T07:04:13;2.40;99.90
20594;DHT22;10455;48.732;10.266;2023-12-07T07:09:16;2.30;99.90
20594;DHT22;10455;48.732;10.266;2023-12-07T07:14:18;2.30;99.90
20594;DHT22;10455;48.732;10.266;2023-12-07T07:19:21;2.30;99.90
20594;DHT22;10455;48.732;10.266;2023-12-07T07:24:23;2.30;99.90
20594;DHT22;10455;48.732;10.266;2023-12-07T07:29:25;2.20;99.90
20594;DHT22;10455;48.732;10.266;2023-12-07T07:34:29;2.20;99.90
20594;DHT22;10455;48.732;10.266;2023-12-07T07:39:31;2.20;99.90
20594;DHT22;10455;48.732;10.266;2023-12-07T07:44:33;2.10;99.90
20594;DHT22;10455;48.732;10.266;2023-12-07T07:49:36;2.10;99.90
20594;DHT22;10455;48.732;10.266;2023-12-07T07:54:39;2.10;99.90
20594;DHT22;10455;48.732;10.266;2023-12-07T07:59:41;2.10;99.90
20594;DHT22;10455;48.732;10.266;2023-12-07T08:04:44;2.10;99.90
20594;DHT22;10455;48.732;10.266;2023-12-07T08:09:46;2.10;99.90
20594;DHT22;10455;48.732;10.266;2023-12-07T08:14:48;2.10;99.90
20594;DHT22;10455;48.732;10.266;2023-12-07T08:19:51;2.00;99.90
20594;DHT22;10455;48.732;10.266;2023-12-07T08:24:53;2.00;99.90
20594;DHT22;10455;48.732;10.266;2023-12-07T08:29:55;2.00;99.90
20594;DHT22;10455;48.732;10.266;2023-12-07T08:34:58;2.00;99.90
20594;DHT22;10455;48.732;10.266;2023-12-07T08:40:00;2.00;99.90
20594;DHT22;10455;48.732;10.266;2023-12-07T08:45:03;2.00;99.90
20594;DHT22;10455;48.732;10.266;2023-12-07T08:50:07;2.00;99.90
20594;DHT22;10455;48.732;10.266;2023-12-07T08:55:09;2.00;99.90
20594;DHT22;10455;48.732;10.266;2023-12-07T09:00:12;2.00;99.90
20594;DHT22;10455;48.732;10.266;2023-12-07T09:05:15;2.10;99.90
20594;DHT22;10455;48.732;10.266;2023-12-07T09:10:17;2.20;99.90
20594;DHT22;10455;48.732;10.266;2023-12-07T09:15:19;2.30;99.90
20594;DHT22;10455;48.732;10.266;2023-12-07T09:20:23;2.40;99.90
20594;DHT22;10455;48.732;10.266;2023-12-07T09:25:25;2.50;99.90
20594;DHT22;10455;48.732;10.266;2023-12-07T09:30:28;2.60;99.90
20594;DHT22;10455;48.732;10.266;2023-12-07T09:35:31;2.80;99.90
20594;DHT22;10455;48.732;10.266;2023-12-07T09:40:35;3.00;99.90
20594;DHT22;10455;48.732;10.266;2023-12-07T09:45:36;3.10;99.90
20594;DHT22;10455;48.732;10.266;2023-12-07T09:50:40;3.30;99.90
20594;DHT22;10455;48.732;10.266;2023-12-07T09:55:42;3.50;99.90
20594;DHT22;10455;48.732;10.266;2023-12-07T10:00:43;3.50;99.90
20594;DHT22;10455;48.732;10.266;2023-12-07T10:05:57;3.60;99.90
20594;DHT22;10455;48.732;10.266;2023-12-07T10:11:05;3.60;99.90
20594;DHT22;10455;48.732;10.266;2023-12-07T10:16:09;3.60;99.90
20594;DHT22;10455;48.732;10.266;2023-12-07T10:21:13;3.50;99.90
20594;DHT22;10455;48.732;10.266;2023-12-07T10:26:16;3.30;99.90
20594;DHT22;10455;48.732;10.266;2023-12-07T10:31:19;3.20;99.90
20594;DHT22;10455;48.732;10.266;2023-12-07T10:36:23;3.30;99.90
20594;DHT22;10455;48.732;10.266;2023-12-07T10:41:25;3.30;99.90
20594;DHT22;10455;48.732;10.266;2023-12-07T10:46:27;3.30;99.90
20594;DHT22;10455;48.732;10.266;2023-12-07T10:51:34;3.30;99.90
20594;DHT22;10455;48.732;10.266;2023-12-07T10:56:42;3.40;99.90
20594;DHT22;10455;48.732;10.266;2023-12-07T11:01:45;3.30;99.90
20594;DHT22;10455;48.732;10.266;2023-12-07T11:06:53;3.30;99.90
20594;DHT22;10455;48.732;10.266;2023-12-07T11:12:02;3.30;99.90
20594;DHT22;10455;48.732;10.266;2023-12-07T11:17:07;3.20;99.90
20594;DHT22;10455;48.732;10.266;2023-12-07T11:22:11;3.10;99.90
20594;DHT22;10455;48.732;10.266;2023-12-07T11:27:13;3.10;99.90
20594;DHT22;10455;48.732;10.266;2023-12-07T11:32:15;3.20;99.90
20594;DHT22;10455;48.732;10.266;2023-12-07T11:37:19;3.20;99.90
20594;DHT22;10455;48.732;10.266;2023-12-07T11:42:21;3.20;99.90
20594;DHT22;10455;48.732;10.266;2023-12-07T11:47:23;3.20;99.90
20594;DHT22;10455;48.732;10.266;2023-12-07T11:52:26;3.10;99.90
20594;DHT22;10455;48.732;10.266;2023-12-07T11:57:30;3.10;99.90
20594;DHT22;10455;48.732;10.266;2023-12-07T12:02:32;3.10;99.90
20594;DHT22;10455;48.732;10.266;2023-12-07T12:07:38;3.10;99.90
20594;DHT22;10455;48.732;10.266;2023-12-07T12:12:40;3.00;99.90
20594;DHT22;10455;48.732;10.266;2023-12-07T12:17:42;3.00;99.90
20594;DHT22;10455;48.732;10.266;2023-12-07T12:22:45;2.90;99.90
20594;DHT22;10455;48.732;10.266;2023-12-07T12:27:47;2.90;99.90
20594;DHT22;10455;48.732;10.266;2023-12-07T12:32:49;2.90;99.90
20594;DHT22;10455;48.732;10.266;2023-12-07T12:37:53;2.90;99.90
20594;DHT22;10455;48.732;10.266;2023-12-07T12:42:56;2.90;99.90
20594;DHT22;10455;48.732;10.266;2023-12-07T12:47:58;2.90;99.90
20594;DHT22;10455;48.732;10.266;2023-12-07T12:53:02;2.80;99.90
20594;DHT22;10455;48.732;10.266;2023-12-07T12:58:06;2.80;99.90
20594;DHT22;10455;48.732;10.266;2023-12-07T13:03:08;2.70;99.90
20594;DHT22;10455;48.732;10.266;2023-12-07T13:08:14;2.70;99.90
20594;DHT22;10455;48.732;10.266;2023-12-07T13:13:16;2.70;99.90
20594;DHT22;10455;48.732;10.266;2023-12-07T13:18:17;2.70;99.90
20594;DHT22;10455;48.732;10.266;2023-12-07T13:23:21;2.70;99.90
20594;DHT22;10455;48.732;10.266;2023-12-07T13:28:23;2.60;99.90
20594;DHT22;10455;48.732;10.266;2023-12-07T13:33:25;2.60;99.90
20594;DHT22;10455;48.732;10.266;2023-12-07T13:38:28;2.50;99.90
20594;DHT22;10455;48.732;10.266;2023-12-07T13:43:30;2.40;99.90
20594;DHT22;10455;48.732;10.266;2023-12-07T13:48:34;2.40;99.90
20594;DHT22;10455;48.732;10.266;2023-12-07T13:53:37;2.30;99.90
20594;DHT22;10455;48.732;10.266;2023-12-07T13:58:39;2.20;99.90
20594;DHT22;10455;48.732;10.266;2023-12-07T14:03:41;2.20;99.90
20594;DHT22;10455;48.732;10.266;2023-12-07T14:08:44;2.10;99.90
20594;DHT22;10455;48.732;10.266;2023-12-07T14:13:47;2.00;99.90
20594;DHT22;10455;48.732;10.266;2023-12-07T14:18:49;2.00;99.90
20594;DHT22;10455;48.732;10.266;2023-12-07T14:23:52;1.90;99.90
20594;DHT22;10455;48.732;10.266;2023-12-07T14:28:55;1.80;99.90
20594;DHT22;10455;48.732;10.266;2023-12-07T14:33:57;1.80;99.90
20594;DHT22;10455;48.732;10.266;2023-12-07T14:39:00;1.80;99.90
20594;DHT22;10455;48.732;10.266;2023-12-07T14:44:05;1.70;99.90
20594;DHT22;10455;48.732;10.266;2023-12-07T14:49:07;1.70;99.90
20594;DHT22;10455;48.732;10.266;2023-12-07T14:54:10;1.60;99.90
20594;DHT22;10455;48.732;10.266;2023-12-07T14:59:12;1.60;99.90
20594;DHT22;10455;48.732;10.266;2023-12-07T15:04:14;1.60;99.90
20594;DHT22;10455;48.732;10.266;2023-12-07T15:09:17;1.50;99.90
20594;DHT22;10455;48.732;10.266;2023-12-07T15:14:20;1.50;99.90
20594;DHT22;10455;48.732;10.266;2023-12-07T15:19:22;1.40;99.90
20594;DHT22;10455;48.732;10.266;2023-12-07T15:24:25;1.40;99.90
20594;DHT22;10455;48.732;10.266;2023-12-07T15:29:27;1.30;99.90
20594;DHT22;10455;48.732;10.266;2023-12-07T15:34:29;1.30;99.90
20594;DHT22;10455;48.732;10.266;2023-12-07T15:39:32;1.20;99.90
20594;DHT22;10455;48.732;10.266;2023-12-07T15:44:34;1.10;99.90
20594;DHT22;10455;48.732;10.266;2023-12-07T15:49:36;1.10;99.90
20594;DHT22;10455;48.732;10.266;2023-12-07T15:54:39;1.00;99.90
20594;DHT22;10455;48.732;10.266;2023-12-07T15:59:42;1.00;99.90
20594;DHT22;10455;48.732;10.266;2023-12-07T16:04:44;1.00;99.90
20594;DHT22;10455;48.732;10.266;2023-12-07T16:09:48;0.90;99.90
20594;DHT22;10455;48.732;10.266;2023-12-07T16:14:50;0.90;99.90
20594;DHT22;10455;48.732;10.266;2023-12-07T16:19:56;0.80;99.90
20594;DHT22;10455;48.732;10.266;2023-12-07T16:24:59;0.70;99.90
20594;DHT22;10455;48.732;10.266;2023-12-07T16:30:03;0.70;99.90
20594;DHT22;10455;48.732;10.266;2023-12-07T16:35:07;0.60;99.90
20594;DHT22;10455;48.732;10.266;2023-12-07T16:40:11;0.60;99.90
20594;DHT22;10455;48.732;10.266;2023-12-07T16:45:13;0.60;99.90
20594;DHT22;10455;48.732;10.266;2023-12-07T16:50:16;0.70;99.90
20594;DHT22;10455;48.732;10.266;2023-12-07T16:55:19;0.60;99.90
20594;DHT22;10455;48.732;10.266;2023-12-07T17:00:21;0.70;99.90
20594;DHT22;10455;48.732;10.266;2023-12-07T17:05:23;0.60;99.90
20594;DHT22;10455;48.732;10.266;2023-12-07T17:10:27;0.60;99.90
20594;DHT22;10455;48.732;10.266;2023-12-07T17:15:28;0.60;99.90
20594;DHT22;10455;48.732;10.266;2023-12-07T17:20:30;0.60;99.90
20594;DHT22;10455;48.732;10.266;2023-12-07T17:25:33;0.50;99.90
20594;DHT22;10455;48.732;10.266;2023-12-07T17:30:35;0.50;99.90
20594;DHT22;10455;48.732;10.266;2023-12-07T17:35:37;0.50;99.90
20594;DHT22;10455;48.732;10.266;2023-12-07T17:40:40;0.50;99.90
20594;DHT22;10455;48.732;10.266;2023-12-07T17:45:42;0.50;99.90
20594;DHT22;10455;48.732;10.266;2023-12-07T17:50:45;0.50;99.90
20594;DHT22;10455;48.732;10.266;2023-12-07T17:55:48;0.40;99.90
20594;DHT22;10455;48.732;10.266;2023-12-07T18:00:50;0.30;99.90
20594;DHT22;10455;48.732;10.266;2023-12-07T18:05:52;0.30;99.90
20594;DHT22;10455;48.732;10.266;2023-12-07T18:10:55;0.40;99.90
20594;DHT22;10455;48.732;10.266;2023-12-07T18:15:57;0.40;99.90
20594;DHT22;10455;48.732;10.266;2023-12-07T18:20:59;0.40;99.90
20594;DHT22;10455;48.732;10.266;2023-12-07T18:26:03;0.30;99.90
20594;DHT22;10455;48.732;10.266;2023-12-07T18:31:05;0.40;99.90
20594;DHT22;10455;48.732;10.266;2023-12-07T18:36:07;0.50;99.90
20594;DHT22;10455;48.732;10.266;2023-12-07T18:41:11;0.50;99.90
20594;DHT22;10455;48.732;10.266;2023-12-07T18:46:12;0.50;99.90
20594;DHT22;10455;48.732;10.266;2023-12-07T18:51:15;0.40;99.90
20594;DHT22;10455;48.732;10.266;2023-12-07T18:56:18;0.40;99.90
20594;DHT22;10455;48.732;10.266;2023-12-07T19:01:28;0.40;99.90
20594;DHT22;10455;48.732;10.266;2023-12-07T19:06:31;0.40;99.90
20594;DHT22;10455;48.732;10.266;2023-12-07T19:11:34;0.30;99.90
20594;DHT22;10455;48.732;10.266;2023-12-07T19:16:36;0.30;99.90
20594;DHT22;10455;48.732;10.266;2023-12-07T19:21:38;0.30;99.90
20594;DHT22;10455;48.732;10.266;2023-12-07T19:26:41;0.30;99.90
20594;DHT22;10455;48.732;10.266;2023-12-07T19:31:43;0.20;99.90
20594;DHT22;10455;48.732;10.266;2023-12-07T19:36:44;0.10;99.90
20594;DHT22;10455;48.732;10.266;2023-12-07T19:41:48;0.10;99.90
20594;DHT22;10455;48.732;10.266;2023-12-07T19:46:51;0.10;99.90
20594;DHT22;10455;48.732;10.266;2023-12-07T19:51:52;0.10;99.90
20594;DHT22;10455;48.732;10.266;2023-12-07T19:56:56;0.10;99.90
20594;DHT22;10455;48.732;10.266;2023-12-07T20:01:57;0.00;99.90
20594;DHT22;10455;48.732;10.266;2023-12-07T20:06:59;0.00;99.90
20594;DHT22;10455;48.732;10.266;2023-12-07T20:12:03;0.00;99.90
20594;DHT22;10455;48.732;10.266;2023-12-07T20:17:05;0.00;99.90
20594;DHT22;10455;48.732;10.266;2023-12-07T20:22:07;0.00;99.90
20594;DHT22;10455;48.732;10.266;2023-12-07T20:27:11;-0.10;99.90
20594;DHT22;10455;48.732;10.266;2023-12-07T20:32:13;-0.10;99.90
20594;DHT22;10455;48.732;10.266;2023-12-07T20:37:15;-0.10;99.90
20594;DHT22;10455;48.732;10.266;2023-12-07T20:42:20;-0.20;99.90
20594;DHT22;10455;48.732;10.266;2023-12-07T20:47:22;-0.20;99.90
20594;DHT22;10455;48.732;10.266;2023-12-07T20:52:24;-0.30;99.90
20594;DHT22;10455;48.732;10.266;2023-12-07T20:57:27;-0.40;99.90
20594;DHT22;10455;48.732;10.266;2023-12-07T21:02:29;-0.40;99.90
20594;DHT22;10455;48.732;10.266;2023-12-07T21:07:31;-0.40;99.90
20594;DHT22;10455;48.732;10.266;2023-12-07T21:12:34;-0.40;99.90
20594;DHT22;10455;48.732;10.266;2023-12-07T21:17:36;-0.50;99.90
20594;DHT22;10455;48.732;10.266;2023-12-07T21:22:38;-0.40;99.90
20594;DHT22;10455;48.732;10.266;2023-12-07T21:27:41;-0.40;99.90
20594;DHT22;10455;48.732;10.266;2023-12-07T21:32:43;-0.40;99.90
20594;DHT22;10455;48.732;10.266;2023-12-07T21:37:46;-0.30;99.90
20594;DHT22;10455;48.732;10.266;2023-12-07T21:42:49;-0.30;99.90
20594;DHT22;10455;48.732;10.266;2023-12-07T21:47:51;-0.10;99.90
20594;DHT22;10455;48.732;10.266;2023-12-07T21:52:53;-0.10;99.90
20594;DHT22;10455;48.732;10.266;2023-12-07T21:57:56;0.00;99.90
20594;DHT22;10455;48.732;10.266;2023-12-07T22:02:58;0.00;99.90
20594;DHT22;10455;48.732;10.266;2023-12-07T22:08:00;0.00;99.90
20594;DHT22;10455;48.732;10.266;2023-12-07T22:13:03;0.10;99.90
20594;DHT22;10455;48.732;10.266;2023-12-07T22:18:05;0.00;99.90
20594;DHT22;10455;48.732;10.266;2023-12-07T22:23:07;0.00;99.90
20594;DHT22;10455;48.732;10.266;2023-12-07T22:28:10;0.10;99.90
20594;DHT22;10455;48.732;10.266;2023-12-07T22:33:12;0.10;99.90
20594;DHT22;10455;48.732;10.266;2023-12-07T22:38:14;0.10;99.90
20594;DHT22;10455;48.732;10.266;2023-12-07T22:43:17;0.00;99.90
20594;DHT22;10455;48.732;10.266;2023-12-07T22:48:19;0.00;99.90
20594;DHT22;10455;48.732;10.266;2023-12-07T22:53:21;0.00;99.90
20594;DHT22;10455;48.732;10.266;2023-12-07T22:58:24;0.00;99.90
20594;DHT22;10455;48.732;10.266;2023-12-07T23:03:26;0.00;99.90
20594;DHT22;10455;48.732;10.266;2023-12-07T23:08:28;0.00;99.90
20594;DHT22;10455;48.732;10.266;2023-12-07T23:13:31;0.00;99.90
20594;DHT22;10455;48.732;10.266;2023-12-07T23:18:33;0.00;99.90
20594;DHT22;10455;48.732;10.266;2023-12-07T23:23:34;0.10;99.90
20594;DHT22;10455;48.732;10.266;2023-12-07T23:28:38;0.10;99.90
20594;DHT22;10455;48.732;10.266;2023-12-07T23:33:40;0.20;99.90
20594;DHT22;10455;48.732;10.266;2023-12-07T23:38:41;0.20;99.90
20594;DHT22;10455;48.732;10.266;2023-12-07T23:43:44;0.20;99.90
20594;DHT22;10455;48.732;10.266;2023-12-07T23:48:46;0.20;99.90
20594;DHT22;10455;48.732;10.266;2023-12-07T23:53:49;0.30;99.90
20594;DHT22;10455;48.732;10.266;2023-12-07T23:58:52;0.30;99.90
